createdAt,value
2022-12-15T00:00:16.463Z,68.97
2022-12-15T00:03:02.119Z,66.30
2022-12-15T00:05:49.782Z,61.80
2022-12-15T00:08:36.916Z,61.40
2022-12-15T00:11:22.497Z,61.83
2022-12-15T00:14:08.030Z,63.10
2022-12-15T00:16:53.657Z,64.10
2022-12-15T00:19:39.184Z,62.42
2022-12-15T00:22:24.612Z,63.45
2022-12-15T00:25:11.338Z,61.45
2022-12-15T00:27:56.823Z,62.47
2022-12-15T00:30:42.276Z,64.63
2022-12-15T00:33:29.927Z,62.15
2022-12-15T00:36:17.978Z,65.50
2022-12-15T00:38:46.187Z,64.45
2022-12-15T00:41:17.112Z,65.72
2022-12-15T00:43:45.102Z,66.22
2022-12-15T00:46:30.493Z,65.78
2022-12-15T00:48:59.110Z,64.38
2022-12-15T00:51:44.585Z,63.60
2022-12-15T00:54:29.674Z,60.30
2022-12-15T00:57:16.185Z,61.25
2022-12-15T01:00:01.780Z,64.30
2022-12-15T01:02:47.344Z,63.25
2022-12-15T01:05:33.081Z,66.80
2022-12-15T01:08:19.108Z,74.53
2022-12-15T01:11:04.484Z,75.68
2022-12-15T01:13:51.396Z,74.07
2022-12-15T01:16:36.817Z,75.55
2022-12-15T01:19:22.236Z,73.72
2022-12-15T01:21:50.989Z,77.47
2022-12-15T01:24:18.944Z,79.80
2022-12-15T01:26:46.832Z,77.60
2022-12-15T01:29:16.058Z,78.88
2022-12-15T01:31:44.118Z,76.40
2022-12-15T01:34:12.192Z,76.22
2022-12-15T01:36:40.143Z,75.95
2022-12-15T01:39:08.155Z,71.90
2022-12-15T01:41:35.123Z,72.75
2022-12-15T01:44:19.004Z,71.15
2022-12-15T01:46:48.249Z,67.95
2022-12-15T01:49:21.753Z,66.15
2022-12-15T01:51:52.402Z,65.88
2022-12-15T01:54:23.606Z,63.47
2022-12-15T01:56:56.044Z,64.20
2022-12-15T01:59:31.936Z,62.10
2022-12-15T02:01:59.980Z,57.63
2022-12-15T02:04:28.113Z,59.55
2022-12-15T02:06:56.012Z,59.17
2022-12-15T02:09:25.616Z,59.78
2022-12-15T02:12:02.054Z,59.80
2022-12-15T02:14:44.635Z,56.55
2022-12-15T02:17:23.319Z,56.90
2022-12-15T02:20:37.608Z,56.72
2022-12-15T02:23:32.916Z,53.13
2022-12-15T02:26:33.740Z,54.15
2022-12-15T02:29:13.256Z,52.53
2022-12-15T02:31:52.041Z,55.15
2022-12-15T02:34:27.468Z,53.78
2022-12-15T02:37:00.371Z,55.97
2022-12-15T02:39:28.276Z,56.53
2022-12-15T02:41:56.286Z,57.60
2022-12-15T02:44:29.075Z,55.97
2022-12-15T02:47:15.136Z,52.53
2022-12-15T02:49:55.048Z,54.30
2022-12-15T02:52:34.521Z,53.13
2022-12-15T02:55:17.003Z,53.13
2022-12-15T02:57:55.043Z,55.65
2022-12-15T03:00:23.906Z,55.30
2022-12-15T03:02:55.460Z,55.28
2022-12-15T03:05:25.534Z,52.35
2022-12-15T03:07:55.060Z,54.97
2022-12-15T03:10:25.451Z,54.13
2022-12-15T03:12:54.471Z,51.97
2022-12-15T03:15:22.601Z,50.92
2022-12-15T03:17:50.607Z,52.17
2022-12-15T03:20:19.985Z,51.53
2022-12-15T03:22:47.897Z,49.40
2022-12-15T03:25:15.960Z,50.63
2022-12-15T03:27:44.351Z,48.45
2022-12-15T03:30:13.637Z,49.60
2022-12-15T03:32:41.590Z,48.45
2022-12-15T03:35:09.901Z,49.10
2022-12-15T03:37:39.269Z,46.63
2022-12-15T03:40:08.593Z,46.42
2022-12-15T03:42:51.583Z,45.47
2022-12-15T03:45:21.197Z,45.72
2022-12-15T03:47:50.144Z,47.08
2022-12-15T03:50:20.689Z,46.35
2022-12-15T03:52:53.324Z,46.83
2022-12-15T03:55:21.924Z,44.72
2022-12-15T03:57:50.330Z,44.42
2022-12-15T04:00:20.045Z,44.58
2022-12-15T04:02:50.138Z,43.28
2022-12-15T04:05:20.699Z,44.67
2022-12-15T04:07:48.958Z,43.00
2022-12-15T04:10:18.566Z,44.83
2022-12-15T04:12:46.478Z,45.75
2022-12-15T04:15:14.716Z,44.30
2022-12-15T04:17:43.356Z,45.13
2022-12-15T04:20:12.100Z,46.17
2022-12-15T04:22:40.863Z,45.65
2022-12-15T04:25:29.211Z,47.08
2022-12-15T04:28:15.659Z,48.33
2022-12-15T04:31:04.953Z,45.00
2022-12-15T04:33:51.147Z,46.08
2022-12-15T04:36:36.616Z,45.45
2022-12-15T04:39:23.495Z,45.88
2022-12-15T04:42:09.485Z,46.13
2022-12-15T04:44:56.527Z,46.60
2022-12-15T04:47:41.972Z,47.30
2022-12-15T04:50:27.398Z,49.50
2022-12-15T04:53:12.920Z,48.97
2022-12-15T04:55:58.550Z,52.15
2022-12-15T04:58:43.968Z,48.38
2022-12-15T05:01:30.675Z,49.63
2022-12-15T05:04:16.169Z,48.72
2022-12-15T05:07:01.608Z,48.78
2022-12-15T05:09:47.150Z,53.55
2022-12-15T05:12:32.442Z,50.58
2022-12-15T05:15:17.988Z,50.33
2022-12-15T05:18:04.648Z,49.50
2022-12-15T05:20:50.301Z,49.35
2022-12-15T05:23:35.783Z,49.70
2022-12-15T05:26:21.408Z,51.17
2022-12-15T05:29:06.908Z,47.67
2022-12-15T05:31:52.250Z,50.38
2022-12-15T05:34:23.338Z,51.65
2022-12-15T05:39:20.883Z,50.38
2022-12-15T05:41:49.116Z,51.42
2022-12-15T05:44:17.392Z,53.20
2022-12-15T05:46:45.387Z,52.83
2022-12-15T05:49:15.980Z,46.67
2022-12-15T05:51:47.068Z,45.97
2022-12-15T05:54:17.199Z,48.35
2022-12-15T05:56:45.538Z,49.97
2022-12-15T05:59:13.953Z,52.47
2022-12-15T06:01:41.957Z,54.65
2022-12-15T06:04:11.903Z,56.30
2022-12-15T06:06:40.281Z,52.47
2022-12-15T06:09:10.312Z,55.58
2022-12-15T06:11:38.372Z,56.65
2022-12-15T06:14:06.438Z,56.65
2022-12-15T06:16:38.265Z,57.85
2022-12-15T06:19:09.197Z,55.75
2022-12-15T06:21:37.976Z,58.13
2022-12-15T06:24:07.026Z,60.97
2022-12-15T06:26:38.041Z,64.03
2022-12-15T06:29:08.778Z,59.17
2022-12-15T06:31:37.607Z,59.08
2022-12-15T06:34:07.451Z,57.40
2022-12-15T06:36:36.035Z,59.40
2022-12-15T06:39:06.289Z,59.00
2022-12-15T06:41:35.782Z,58.20
2022-12-15T06:44:03.812Z,58.42
2022-12-15T06:46:33.231Z,58.22
2022-12-15T06:49:01.850Z,59.10
2022-12-15T06:51:30.239Z,61.92
2022-12-15T06:53:58.291Z,59.47
2022-12-15T06:56:33.192Z,59.50
2022-12-15T06:59:04.290Z,58.03
2022-12-15T07:01:33.171Z,60.33
2022-12-15T07:04:03.069Z,60.92
2022-12-15T07:06:36.581Z,62.05
2022-12-15T07:09:07.170Z,64.00
2022-12-15T07:11:35.385Z,61.17
2022-12-15T07:14:06.014Z,61.20
2022-12-15T07:16:34.244Z,71.13
2022-12-15T07:19:02.418Z,70.38
2022-12-15T07:21:30.826Z,70.68
2022-12-15T07:23:59.926Z,72.32
2022-12-15T07:26:28.623Z,69.90
2022-12-15T07:28:56.804Z,72.05
2022-12-15T07:31:26.340Z,70.97
2022-12-15T07:33:54.740Z,75.25
2022-12-15T07:36:23.181Z,75.40
2022-12-15T07:38:51.982Z,73.57
2022-12-15T07:41:21.262Z,74.57
2022-12-15T07:43:49.635Z,74.90
2022-12-15T07:46:17.933Z,74.82
2022-12-15T07:48:50.981Z,74.53
2022-12-15T07:51:21.204Z,74.15
2022-12-15T07:53:50.891Z,78.53
2022-12-15T07:56:20.386Z,79.45
2022-12-15T07:58:48.359Z,83.22
2022-12-15T08:01:17.174Z,84.60
2022-12-15T08:03:46.009Z,86.72
2022-12-15T08:06:16.916Z,87.70
2022-12-15T08:08:50.295Z,89.68
2022-12-15T08:11:20.466Z,93.55
2022-12-15T08:14:05.659Z,97.20
2022-12-15T08:16:36.705Z,101.38
2022-12-15T08:19:06.331Z,97.95
2022-12-15T08:21:35.847Z,99.35
2022-12-15T08:24:04.220Z,99.40
2022-12-15T08:26:32.175Z,100.90
2022-12-15T08:29:40.659Z,99.57
2022-12-15T08:31:52.727Z,96.72
2022-12-15T08:34:21.031Z,95.80
2022-12-15T08:36:50.460Z,98.00
2022-12-15T08:39:18.411Z,98.35
2022-12-15T08:41:46.376Z,99.45
2022-12-15T08:44:14.387Z,101.97
2022-12-15T08:46:42.334Z,98.28
2022-12-15T08:49:15.255Z,99.28
2022-12-15T08:51:45.920Z,103.03
2022-12-15T08:54:20.349Z,103.00
2022-12-15T08:56:48.478Z,103.85
2022-12-15T08:59:16.913Z,105.55
2022-12-15T09:01:44.871Z,106.03
2022-12-15T09:04:13.154Z,108.82
2022-12-15T09:06:41.153Z,107.80
2022-12-15T09:09:12.471Z,110.03
2022-12-15T09:11:41.891Z,110.97
2022-12-15T09:14:09.803Z,111.45
2022-12-15T09:16:37.753Z,114.93
2022-12-15T09:19:05.781Z,113.75
2022-12-15T09:21:33.687Z,117.15
2022-12-15T09:24:02.748Z,118.60
2022-12-15T09:26:32.500Z,119.40
2022-12-15T09:29:02.878Z,118.70
2022-12-15T09:31:32.843Z,122.18
2022-12-15T09:34:02.174Z,125.00
2022-12-15T09:36:32.518Z,128.45
2022-12-15T09:39:01.870Z,131.52
2022-12-15T09:41:32.126Z,138.27
2022-12-15T09:44:04.383Z,149.15
2022-12-15T09:49:10.979Z,146.82
2022-12-15T09:51:44.622Z,152.77
2022-12-15T09:54:12.893Z,160.05
2022-12-15T09:56:49.874Z,164.63
2022-12-15T09:59:30.683Z,162.10
2022-12-15T10:02:22.759Z,162.38
2022-12-15T10:04:59.044Z,168.23
2022-12-15T10:07:32.320Z,166.82
2022-12-15T10:10:00.298Z,166.75
2022-12-15T10:12:32.647Z,168.48
2022-12-15T10:17:46.522Z,164.18
2022-12-15T10:20:21.508Z,169.68
2022-12-15T10:22:51.241Z,171.60
2022-12-15T10:25:29.285Z,176.38
2022-12-15T10:28:18.707Z,175.80
2022-12-15T10:30:52.793Z,182.00
2022-12-15T10:33:24.943Z,183.20
2022-12-15T10:35:54.933Z,191.40
2022-12-15T10:38:32.192Z,187.95
2022-12-15T10:41:02.050Z,198.38
2022-12-15T10:43:34.581Z,195.27
2022-12-15T10:46:08.337Z,192.27
2022-12-15T10:48:36.602Z,194.38
2022-12-15T10:51:21.065Z,198.90
2022-12-15T10:53:51.004Z,195.73
2022-12-15T10:56:32.432Z,199.27
2022-12-15T10:59:03.557Z,203.30
2022-12-15T11:01:35.682Z,197.60
2022-12-15T11:06:34.030Z,209.63
2022-12-15T11:09:10.947Z,208.98
2022-12-15T11:12:06.287Z,202.40
2022-12-15T11:14:44.724Z,203.52
2022-12-15T11:17:18.551Z,217.18
2022-12-15T11:20:01.636Z,213.27
2022-12-15T11:22:40.969Z,214.10
2022-12-15T11:25:25.936Z,210.52
2022-12-15T11:27:57.963Z,206.88
2022-12-15T11:30:30.466Z,209.60
2022-12-15T11:33:01.595Z,218.25
2022-12-15T11:35:36.685Z,211.55
2022-12-15T11:38:14.164Z,213.35
2022-12-15T11:40:43.060Z,218.40
2022-12-15T11:43:35.282Z,227.77
2022-12-15T11:46:19.775Z,226.82
2022-12-15T11:49:09.076Z,221.32
2022-12-15T11:51:43.576Z,222.18
2022-12-15T11:54:19.535Z,221.57
2022-12-15T11:56:51.474Z,224.68
2022-12-15T11:59:48.304Z,221.88
2022-12-15T12:02:45.767Z,232.38
2022-12-15T12:05:41.635Z,227.13
2022-12-15T12:08:36.576Z,222.77
2022-12-15T12:11:11.037Z,215.27
2022-12-15T12:13:51.181Z,212.40
2022-12-15T12:16:32.402Z,220.45
2022-12-15T12:19:05.656Z,214.15
2022-12-15T12:21:37.927Z,193.25
2022-12-15T12:24:12.854Z,202.77
2022-12-15T12:26:46.160Z,202.68
2022-12-15T12:29:21.269Z,196.68
2022-12-15T12:32:04.164Z,195.65
2022-12-15T12:34:43.589Z,192.15
2022-12-15T12:37:20.925Z,183.63
2022-12-15T12:39:50.841Z,183.70
2022-12-15T12:42:26.537Z,175.48
2022-12-15T12:44:54.514Z,177.30
2022-12-15T12:47:27.451Z,177.63
2022-12-15T12:49:58.509Z,159.68
2022-12-15T12:52:31.225Z,160.47
2022-12-15T12:55:01.416Z,163.85
2022-12-15T12:57:38.338Z,165.38
2022-12-15T13:00:24.886Z,149.10
2022-12-15T13:03:10.210Z,141.48
2022-12-15T13:05:39.786Z,139.75
2022-12-15T13:11:58.119Z,123.90
2022-12-15T13:14:36.938Z,115.68
2022-12-15T13:17:28.186Z,108.68
2022-12-15T13:20:25.712Z,98.85
2022-12-15T13:22:55.196Z,79.22
2022-12-15T13:25:40.850Z,60.10
2022-12-15T13:28:24.276Z,46.45
2022-12-15T13:31:23.020Z,35.90
2022-12-15T13:33:56.696Z,20.13
2022-12-15T13:36:47.016Z,12.07
2022-12-15T13:39:58.038Z,6.95
2022-12-15T13:42:45.595Z,3.97
2022-12-15T13:45:43.096Z,2.50
2022-12-15T13:48:23.386Z,2.95
2022-12-15T13:51:02.510Z,2.78
2022-12-15T13:53:38.777Z,2.25
2022-12-15T13:56:23.605Z,1.90
2022-12-15T13:59:03.991Z,1.80
2022-12-15T14:01:33.836Z,2.30
2022-12-15T14:04:07.997Z,1.73
2022-12-15T14:06:38.925Z,1.80
2022-12-15T14:09:11.068Z,1.85
2022-12-15T14:11:57.326Z,2.08
2022-12-15T14:14:30.084Z,1.85
2022-12-15T14:17:01.075Z,2.40
2022-12-15T14:19:38.822Z,2.70
2022-12-15T14:22:28.044Z,2.63
2022-12-15T14:25:13.238Z,2.67
2022-12-15T14:27:41.152Z,2.47
2022-12-15T14:30:20.220Z,2.40
2022-12-15T14:32:52.677Z,2.92
2022-12-15T14:35:26.776Z,2.70
2022-12-15T14:37:58.736Z,2.95
2022-12-15T14:40:29.511Z,2.70
2022-12-15T14:42:57.953Z,2.65
2022-12-15T14:45:32.049Z,3.30
2022-12-15T14:50:59.407Z,2.60
2022-12-15T14:53:31.732Z,2.10
2022-12-15T14:58:42.420Z,2.80
2022-12-15T15:01:26.266Z,2.90
2022-12-15T15:03:07.287Z,132.25
2022-12-15T15:04:02.004Z,1.88
2022-12-15T15:06:41.119Z,2.00
2022-12-15T15:09:25.366Z,2.17
2022-12-15T15:11:56.570Z,2.00
2022-12-15T15:14:27.801Z,2.15
2022-12-15T15:17:05.563Z,2.88
2022-12-15T15:19:39.091Z,2.88
2022-12-15T15:22:14.155Z,2.75
2022-12-15T15:24:42.155Z,12.77
2022-12-15T15:27:25.178Z,3.78
2022-12-15T15:29:53.433Z,3.45
2022-12-15T15:32:25.097Z,4.88
2022-12-15T15:34:53.027Z,4.13
2022-12-15T15:37:23.765Z,4.00
2022-12-15T15:39:53.043Z,4.13
2022-12-15T15:42:21.289Z,4.50
2022-12-15T15:44:49.172Z,4.88
2022-12-15T15:47:26.359Z,4.35
2022-12-15T15:49:55.916Z,7.35
2022-12-15T15:52:24.385Z,6.50
2022-12-15T15:54:54.696Z,4.93
2022-12-15T15:57:22.900Z,5.05
2022-12-15T15:59:51.060Z,4.55
2022-12-15T16:02:19.147Z,4.72
2022-12-15T16:04:48.576Z,4.60
2022-12-15T16:07:23.539Z,4.85
2022-12-15T16:09:51.739Z,4.78
2022-12-15T16:12:27.750Z,4.85
2022-12-15T16:14:55.921Z,5.03
2022-12-15T16:17:24.275Z,4.93
2022-12-15T16:19:53.547Z,5.00
2022-12-15T16:22:23.142Z,5.63
2022-12-15T16:24:51.124Z,6.90
2022-12-15T16:27:19.065Z,7.05
2022-12-15T16:29:47.010Z,7.20
2022-12-15T16:32:15.448Z,7.05
2022-12-15T16:34:43.580Z,7.22
2022-12-15T16:37:25.418Z,7.95
2022-12-15T16:39:53.605Z,8.63
2022-12-15T16:42:21.593Z,8.20
2022-12-15T16:44:49.570Z,8.55
2022-12-15T16:47:17.481Z,7.30
2022-12-15T16:49:45.529Z,7.30
2022-12-15T16:52:20.698Z,8.52
2022-12-15T16:54:50.180Z,9.48
2022-12-15T16:57:18.453Z,9.65
2022-12-15T16:59:46.408Z,9.52
2022-12-15T17:02:28.140Z,9.25
2022-12-15T17:04:56.377Z,10.25
2022-12-15T17:07:27.576Z,10.20
2022-12-15T17:09:55.603Z,10.10
2022-12-15T17:12:23.608Z,11.48
2022-12-15T17:14:51.556Z,10.73
2022-12-15T17:17:21.263Z,11.30
2022-12-15T17:20:19.835Z,12.10
2022-12-15T17:22:38.899Z,13.68
2022-12-15T17:25:07.512Z,13.18
2022-12-15T17:27:35.484Z,14.73
2022-12-15T17:30:03.630Z,15.25
2022-12-15T17:32:31.683Z,14.75
2022-12-15T17:34:59.635Z,17.65
2022-12-15T17:37:32.004Z,19.92
2022-12-15T17:40:05.099Z,27.05
2022-12-15T17:42:32.998Z,24.83
2022-12-15T17:45:00.955Z,20.50
2022-12-15T17:47:30.438Z,28.92
2022-12-15T17:49:58.405Z,25.40
2022-12-15T17:52:29.315Z,31.23
2022-12-15T17:54:57.895Z,37.78
2022-12-15T17:57:27.368Z,42.70
2022-12-15T17:59:55.848Z,46.35
2022-12-15T18:02:23.878Z,48.10
2022-12-15T18:04:51.970Z,48.70
2022-12-15T18:07:22.382Z,49.70
2022-12-15T18:09:51.890Z,48.10
2022-12-15T18:12:22.610Z,51.03
2022-12-15T18:14:52.360Z,49.90
2022-12-15T18:17:20.583Z,47.60
2022-12-15T18:19:48.862Z,45.45
2022-12-15T18:22:21.059Z,45.42
2022-12-15T18:24:49.376Z,46.63
2022-12-15T18:27:23.715Z,45.47
2022-12-15T18:29:53.931Z,45.13
2022-12-15T18:32:23.711Z,42.97
2022-12-15T18:34:52.342Z,40.95
2022-12-15T18:37:23.048Z,39.17
2022-12-15T18:39:51.512Z,38.90
2022-12-15T18:42:21.592Z,40.10
2022-12-15T18:44:51.596Z,37.72
2022-12-15T18:47:23.890Z,34.92
2022-12-15T18:52:22.569Z,33.42
2022-12-15T18:54:52.261Z,32.55
2022-12-15T18:57:28.037Z,32.83
2022-12-15T18:59:58.749Z,33.80
2022-12-15T19:02:28.316Z,33.45
2022-12-15T19:04:56.887Z,29.75
2022-12-15T19:07:24.839Z,28.83
2022-12-15T19:09:52.869Z,29.35
2022-12-15T19:12:20.969Z,29.17
2022-12-15T19:14:51.398Z,27.13
2022-12-15T19:17:39.347Z,27.35
2022-12-15T19:20:39.468Z,27.15
2022-12-15T19:23:08.499Z,29.63
2022-12-15T19:25:36.762Z,29.52
2022-12-15T19:28:05.099Z,31.42
2022-12-15T19:30:40.286Z,32.35
2022-12-15T19:33:09.916Z,33.80
2022-12-15T19:35:39.874Z,37.25
2022-12-15T19:38:08.634Z,40.10
2022-12-15T19:40:38.171Z,42.92
2022-12-15T19:43:07.244Z,45.15
2022-12-15T19:45:35.234Z,48.20
2022-12-15T19:48:03.414Z,50.33
2022-12-15T19:50:36.602Z,48.97
2022-12-15T19:53:11.764Z,48.10
2022-12-15T19:55:40.277Z,49.65
2022-12-15T19:58:27.949Z,52.90
2022-12-15T20:00:58.061Z,58.72
2022-12-15T20:03:26.846Z,62.75
2022-12-15T20:05:56.376Z,65.43
2022-12-15T20:08:27.747Z,65.70
2022-12-15T20:10:56.751Z,71.13
2022-12-15T20:13:26.372Z,72.80
2022-12-15T20:15:54.841Z,71.93
2022-12-15T20:18:23.008Z,69.82
2022-12-15T20:20:51.438Z,74.10
2022-12-15T20:23:21.835Z,81.85
2022-12-15T20:25:51.167Z,79.15
2022-12-15T20:28:21.766Z,74.55
2022-12-15T20:30:50.426Z,75.95
2022-12-15T20:33:19.141Z,78.07
2022-12-15T20:35:49.056Z,81.50
2022-12-15T20:38:25.902Z,81.30
2022-12-15T20:40:56.313Z,82.65
2022-12-15T20:43:25.851Z,86.78
2022-12-15T20:46:01.798Z,87.03
2022-12-15T20:48:31.023Z,88.95
2022-12-15T20:51:01.949Z,90.50
2022-12-15T20:53:32.935Z,94.40
2022-12-15T20:56:02.603Z,97.30
2022-12-15T20:58:33.331Z,91.32
2022-12-15T21:01:01.832Z,92.47
2022-12-15T21:03:32.000Z,100.38
2022-12-15T21:06:00.851Z,102.90
2022-12-15T21:08:31.630Z,106.85
2022-12-15T21:11:08.324Z,104.18
2022-12-15T21:13:36.495Z,106.47
2022-12-15T21:16:04.568Z,108.75
2022-12-15T21:21:25.229Z,114.95
2022-12-15T21:23:53.178Z,115.10
2022-12-15T21:26:25.909Z,116.15
2022-12-15T21:28:57.077Z,121.55
2022-12-15T21:31:25.203Z,128.02
2022-12-15T21:33:53.244Z,126.53
2022-12-15T21:36:23.222Z,132.75
2022-12-15T21:38:53.014Z,130.90
2022-12-15T21:41:24.761Z,132.52
2022-12-15T21:43:52.706Z,129.68
2022-12-15T21:46:28.397Z,129.20
2022-12-15T21:49:17.313Z,130.35
2022-12-15T21:51:47.682Z,126.05
2022-12-15T21:54:19.146Z,127.63
2022-12-15T21:56:49.505Z,124.93
2022-12-15T21:59:20.718Z,120.03
2022-12-15T22:01:49.768Z,125.80
2022-12-15T22:04:22.041Z,121.97
2022-12-15T22:06:51.123Z,121.97
2022-12-15T22:09:21.251Z,130.43
2022-12-15T22:11:53.872Z,134.88
2022-12-15T22:14:26.848Z,137.68
2022-12-15T22:16:55.519Z,138.30
2022-12-15T22:19:23.875Z,140.30
2022-12-15T22:21:52.296Z,146.32
2022-12-15T22:24:20.878Z,152.90
2022-12-15T22:26:50.319Z,156.38
2022-12-15T22:29:21.613Z,158.23
2022-12-15T22:31:50.595Z,158.35
2022-12-15T22:34:21.633Z,161.30
2022-12-15T22:36:50.404Z,163.50
2022-12-15T22:39:19.007Z,157.68
2022-12-15T22:41:51.448Z,157.60
2022-12-15T22:44:22.994Z,155.15
2022-12-15T22:46:52.377Z,152.07
2022-12-15T22:49:24.821Z,155.02
2022-12-15T22:51:52.767Z,160.50
2022-12-15T22:54:25.418Z,158.43
2022-12-15T22:56:58.579Z,159.55
2022-12-15T22:59:30.101Z,159.45
2022-12-15T23:01:58.402Z,158.60
2022-12-15T23:04:26.461Z,158.23
2022-12-15T23:06:54.876Z,152.40
2022-12-15T23:09:22.973Z,153.50
2022-12-15T23:11:49.950Z,153.55
2022-12-15T23:14:40.234Z,151.77
2022-12-15T23:17:07.274Z,148.82
2022-12-15T23:19:36.311Z,143.32
2022-12-15T23:22:04.419Z,147.35
2022-12-15T23:24:32.647Z,143.30
2022-12-15T23:27:00.890Z,144.13
2022-12-15T23:29:30.212Z,144.25
2022-12-15T23:31:58.389Z,145.18
2022-12-15T23:34:26.376Z,136.20
2022-12-15T23:36:54.336Z,142.63
2022-12-15T23:39:22.411Z,143.80
2022-12-15T23:41:50.402Z,148.30
2022-12-15T23:44:18.501Z,146.38
2022-12-15T23:46:47.955Z,144.95
2022-12-15T23:49:15.971Z,148.40
2022-12-15T23:51:44.158Z,143.45
2022-12-15T23:54:12.130Z,141.32
2022-12-15T23:56:40.768Z,143.40
2022-12-15T23:59:08.709Z,142.52
